Meteo Giornale » Osservazioni meteo Stati Uniti (USA) » Columbus
ore: 16:51 - Osservazioni Meteo Columbus
Lat. 32° 30' N Lon. 84° 56' W Alt. 121 metri s.l.m.
34 °C
Poco Nuvoloso
Temp. 24 Ore
23 °C
34 °C
Nord
9.3 Km/h
Dew point 20 °C
Umidità 43 %
Visibilità 10 Km
Il sole sorge alle ore 07:14
Il sole tramonta alle ore 20:05
| Data e Ora | Cielo e Fenomeni | T °C | DP °C | Um. % | Pres. hPa | Vis. km | Vento km/h | |
|---|---|---|---|---|---|---|---|---|
| Oggi h: 16:51 | Poco Nuvoloso | 34 | 20 | 43 | 1017 | 10 | N 9.3 | |
| Oggi h: 15:51 | Sereno | 34 | 21 | 46 | 1018 | 10 | E 9.3 | |
| Oggi h: 14:51 | Poco Nuvoloso | 32 | 21 | 52 | 1019 | 10 | N 0 | |
| Oggi h: 13:51 | Molto Nuvoloso | 32 | 22 | 55 | 1019 | 10 | E/NE 13 | |
| Oggi h: 12:51 | Sereno | 32 | 22 | 55 | 1020 | 10 | SE 11.1 | |
| Oggi h: 11:51 | Nuvoloso | 31 | 22 | 58 | 1020 | 10 | E 11.1 | |
| Oggi h: 10:51 | Sereno | 28 | 23 | 74 | 1020 | 10 | N 5.5 | |
| Oggi h: 09:51 | Sereno | 27 | 23 | 78 | 1020 | 10 | SE 9.3 | |
| Oggi h: 08:51 | Sereno | 26 | 23 | 83 | 1020 | 10 | E 7.4 | |
| Oggi h: 07:51 | Sereno | 24 | 22 | 88 | 1020 | 10 | E 9.3 | |
| Oggi h: 06:51 | Sereno | 23 | 22 | 94 | 1019 | 10 | N 5.5 | |
| Oggi h: 05:51 | Sereno | 24 | 22 | 88 | 1019 | 10 | N 5.5 | |
| Oggi h: 04:51 | Poco Nuvoloso | 24 | 22 | 88 | 1019 | 10 | E 7.4 | |
| Oggi h: 03:51 | Sereno | 24 | 22 | 88 | 1019 | 10 | N 5.5 | |
| Oggi h: 02:51 | Sereno | 25 | 22 | 83 | 1018 | 10 | N 5.5 | |
| Oggi h: 01:51 | Sereno | 25 | 22 | 83 | 1019 | 10 | E 7.4 | |
| Oggi h: 00:51 | Sereno | 26 | 23 | 83 | 1018 | 10 | E 7.4 | |
| Ieri h: 23:51 | Sereno | 26 | 23 | 83 | 1019 | 10 | N 5.5 | |
| Ieri h: 22:51 | Sereno | 27 | 22 | 74 | 1019 | 10 | N 5.5 | |
| Ieri h: 21:51 | Sereno | 27 | 22 | 74 | 1019 | 10 | E/NE 7.4 | |
| Ieri h: 20:51 | Sereno | 27 | 22 | 74 | 1018 | 10 | N 0 | |
| Ieri h: 19:51 | Sereno | 28 | 22 | 69 | 1018 | 10 | N 0 | |
| Ieri h: 18:51 | Molto Nuvoloso | 27 | 22 | 74 | 1018 | 10 | S 13 | |
| Ieri h: 18:44 | Molto Nuvoloso | 28 | 22 | 69 | 1018 | 10 | S 25.9 | |
| Ieri h: 17:51 | Sereno | 32 | 22 | 55 | 1017 | 10 | E 9.3 | |



